createdAt,value
2022-08-31T00:00:33.811Z,84.33
2022-08-31T00:01:33.818Z,84.77
2022-08-31T00:02:33.854Z,84.77
2022-08-31T00:03:33.774Z,84.87
2022-08-31T00:04:33.838Z,85.07
2022-08-31T00:05:33.752Z,84.87
2022-08-31T00:06:33.742Z,85.17
2022-08-31T00:07:33.753Z,85.17
2022-08-31T00:08:33.756Z,85.17
2022-08-31T00:09:33.706Z,85.27
2022-08-31T00:10:36.979Z,85.78
2022-08-31T00:11:33.709Z,85.58
2022-08-31T00:12:33.702Z,85.68
2022-08-31T00:13:33.673Z,85.68
2022-08-31T00:14:33.762Z,85.68
2022-08-31T00:15:33.687Z,85.68
2022-08-31T00:16:33.671Z,85.68
2022-08-31T00:17:33.634Z,85.48
2022-08-31T00:18:33.605Z,85.48
2022-08-31T00:19:33.593Z,85.58
2022-08-31T00:20:34.842Z,85.68
2022-08-31T00:21:33.596Z,86.29
2022-08-31T00:22:33.564Z,85.88
2022-08-31T00:23:33.551Z,86.79
2022-08-31T00:24:33.540Z,86.49
2022-08-31T00:25:33.572Z,86.49
2022-08-31T00:26:33.563Z,86.59
2022-08-31T00:27:33.509Z,86.29
2022-08-31T00:28:33.503Z,86.29
2022-08-31T00:29:33.609Z,86.33
2022-08-31T00:30:33.471Z,86.19
2022-08-31T00:31:33.536Z,86.33
2022-08-31T00:32:33.473Z,86.43
2022-08-31T00:33:33.434Z,86.53
2022-08-31T00:34:33.449Z,86.94
2022-08-31T00:35:34.189Z,86.73
2022-08-31T00:36:33.405Z,87.14
2022-08-31T00:37:33.528Z,86.94
2022-08-31T00:38:33.387Z,86.73
2022-08-31T00:39:33.375Z,86.73
2022-08-31T00:40:33.469Z,86.73
2022-08-31T00:41:35.728Z,86.73
2022-08-31T00:42:33.357Z,87.04
2022-08-31T00:43:33.328Z,87.04
2022-08-31T00:44:33.323Z,86.98
2022-08-31T00:45:33.341Z,86.88
2022-08-31T00:46:33.354Z,87.14
2022-08-31T00:47:33.278Z,87.24
2022-08-31T00:48:33.268Z,87.74
2022-08-31T00:49:33.257Z,87.14
2022-08-31T00:50:33.241Z,87.34
2022-08-31T00:51:33.235Z,87.65
2022-08-31T00:52:37.541Z,87.69
2022-08-31T00:53:33.212Z,87.54
2022-08-31T00:54:33.209Z,87.34
2022-08-31T00:55:33.212Z,87.45
2022-08-31T00:56:33.183Z,87.14
2022-08-31T00:57:34.552Z,87.24
2022-08-31T00:58:33.161Z,87.65
2022-08-31T00:59:33.142Z,87.45
2022-08-31T01:00:33.168Z,87.14
2022-08-31T01:01:33.237Z,87.69
2022-08-31T01:02:33.179Z,87.95
2022-08-31T01:03:35.615Z,88.15
2022-08-31T01:04:33.094Z,87.95
2022-08-31T01:05:33.084Z,87.79
2022-08-31T01:06:33.062Z,88.09
2022-08-31T01:07:33.055Z,88.09
2022-08-31T01:08:33.072Z,87.89
2022-08-31T01:09:33.034Z,88.09
2022-08-31T01:10:33.017Z,87.99
2022-08-31T01:11:33.010Z,87.99
2022-08-31T01:12:33.000Z,87.99
2022-08-31T01:13:38.984Z,88.09
2022-08-31T01:14:32.978Z,88.29
2022-08-31T01:15:32.962Z,88.40
2022-08-31T01:16:33.208Z,88.80
2022-08-31T01:17:32.962Z,88.80
2022-08-31T01:18:32.930Z,88.80
2022-08-31T01:19:32.918Z,88.70
2022-08-31T01:20:33.062Z,88.60
2022-08-31T01:21:32.899Z,88.95
2022-08-31T01:22:32.909Z,88.90
2022-08-31T01:23:32.873Z,88.40
2022-08-31T01:24:32.861Z,88.60
2022-08-31T01:25:33.874Z,88.90
2022-08-31T01:26:32.861Z,88.95
2022-08-31T01:27:32.829Z,89.11
2022-08-31T01:28:32.817Z,89.01
2022-08-31T01:29:32.826Z,89.15
2022-08-31T01:30:32.818Z,88.64
2022-08-31T01:31:32.872Z,89.45
2022-08-31T01:32:32.807Z,89.25
2022-08-31T01:33:32.792Z,89.45
2022-08-31T01:34:32.781Z,89.04
2022-08-31T01:35:32.739Z,89.35
2022-08-31T01:36:32.746Z,89.25
2022-08-31T01:37:32.730Z,89.25
2022-08-31T01:38:32.707Z,89.15
2022-08-31T01:39:32.772Z,89.55
2022-08-31T01:40:32.736Z,89.55
2022-08-31T01:41:32.669Z,89.29
2022-08-31T01:42:34.245Z,89.86
2022-08-31T01:43:32.659Z,89.80
2022-08-31T01:44:32.666Z,89.80
2022-08-31T01:45:32.630Z,89.65
2022-08-31T01:46:32.680Z,90.16
2022-08-31T01:47:32.609Z,90.16
2022-08-31T01:48:32.596Z,90.26
2022-08-31T01:49:32.760Z,89.86
2022-08-31T01:50:32.582Z,89.86
2022-08-31T01:51:32.565Z,89.86
2022-08-31T01:52:32.546Z,89.96
2022-08-31T01:53:32.541Z,89.76
2022-08-31T01:54:32.558Z,89.86
2022-08-31T01:55:32.532Z,89.96
2022-08-31T01:56:32.646Z,89.65
2022-08-31T01:57:33.398Z,89.25
2022-08-31T01:58:32.529Z,89.51
2022-08-31T01:59:34.596Z,89.21
2022-08-31T02:00:32.516Z,89.31
2022-08-31T02:01:33.472Z,89.06
2022-08-31T02:02:32.491Z,88.86
2022-08-31T02:03:32.426Z,88.56
2022-08-31T02:04:32.459Z,88.76
2022-08-31T02:05:32.408Z,88.76
2022-08-31T02:06:32.401Z,88.76
2022-08-31T02:07:32.408Z,88.15
2022-08-31T02:08:32.372Z,88.21
2022-08-31T02:09:32.386Z,87.71
2022-08-31T02:10:33.209Z,87.95
2022-08-31T02:11:32.417Z,88.01
2022-08-31T02:12:32.325Z,87.91
2022-08-31T02:13:32.481Z,87.51
2022-08-31T02:14:34.525Z,87.10
2022-08-31T02:15:32.296Z,87.81
2022-08-31T02:16:32.384Z,87.91
2022-08-31T02:17:32.273Z,88.01
2022-08-31T02:18:32.259Z,88.01
2022-08-31T02:19:32.292Z,88.01
2022-08-31T02:20:32.233Z,88.11
2022-08-31T02:21:32.226Z,88.11
2022-08-31T02:22:32.218Z,88.21
2022-08-31T02:23:32.201Z,87.71
2022-08-31T02:24:32.195Z,87.87
2022-08-31T02:25:32.195Z,87.87
2022-08-31T02:26:32.179Z,87.30
2022-08-31T02:27:32.157Z,87.46
2022-08-31T02:28:32.163Z,87.56
2022-08-31T02:29:32.135Z,87.26
2022-08-31T02:30:32.121Z,86.76
2022-08-31T02:31:32.226Z,86.76
2022-08-31T02:32:35.767Z,87.46
2022-08-31T02:33:32.089Z,86.96
2022-08-31T02:34:39.241Z,86.96
2022-08-31T02:35:32.070Z,86.85
2022-08-31T02:36:32.059Z,87.26
2022-08-31T02:37:32.045Z,86.85
2022-08-31T02:38:32.031Z,87.16
2022-08-31T02:39:32.035Z,87.05
2022-08-31T02:40:32.132Z,86.96
2022-08-31T02:41:32.060Z,86.85
2022-08-31T02:42:39.402Z,87.05
2022-08-31T02:43:32.981Z,86.76
2022-08-31T02:44:31.989Z,86.96
2022-08-31T02:45:32.130Z,87.05
2022-08-31T02:46:34.466Z,86.82
2022-08-31T02:47:31.932Z,86.85
2022-08-31T02:48:31.919Z,87.05
2022-08-31T02:49:31.909Z,87.16
2022-08-31T02:50:31.922Z,87.26
2022-08-31T02:51:31.885Z,87.16
2022-08-31T02:52:31.875Z,87.26
2022-08-31T02:53:31.864Z,87.26
2022-08-31T02:54:31.856Z,87.26
2022-08-31T02:55:31.860Z,87.36
2022-08-31T02:56:31.832Z,87.36
2022-08-31T02:57:31.819Z,87.36
2022-08-31T02:58:31.810Z,87.16
2022-08-31T02:59:31.796Z,87.16
2022-08-31T03:00:31.859Z,87.46
2022-08-31T03:01:31.903Z,87.16
2022-08-31T03:02:32.425Z,87.36
2022-08-31T03:03:31.745Z,87.56
2022-08-31T03:04:31.738Z,88.07
2022-08-31T03:05:31.749Z,87.56
2022-08-31T03:06:31.720Z,87.56
2022-08-31T03:07:31.713Z,87.77
2022-08-31T03:08:31.736Z,88.07
2022-08-31T03:09:31.684Z,88.01
2022-08-31T03:10:31.679Z,88.27
2022-08-31T03:11:31.659Z,88.62
2022-08-31T03:12:31.658Z,88.82
2022-08-31T03:13:31.973Z,88.68
2022-08-31T03:14:31.647Z,88.68
2022-08-31T03:15:31.663Z,88.51
2022-08-31T03:16:31.605Z,88.37
2022-08-31T03:17:31.745Z,88.62
2022-08-31T03:18:31.583Z,88.51
2022-08-31T03:19:32.468Z,88.82
2022-08-31T03:20:31.561Z,88.72
2022-08-31T03:21:31.551Z,88.31
2022-08-31T03:22:31.548Z,88.82
2022-08-31T03:23:31.638Z,88.92
2022-08-31T03:24:31.532Z,88.37
2022-08-31T03:25:31.506Z,88.82
2022-08-31T03:26:31.494Z,88.82
2022-08-31T03:27:31.487Z,88.78
2022-08-31T03:28:31.474Z,88.27
2022-08-31T03:29:31.490Z,88.82
2022-08-31T03:30:31.608Z,88.48
2022-08-31T03:31:31.514Z,88.31
2022-08-31T03:32:31.705Z,88.82
2022-08-31T03:33:31.423Z,88.82
2022-08-31T03:34:31.402Z,88.62
2022-08-31T03:35:31.437Z,88.62
2022-08-31T03:36:31.683Z,89.02
2022-08-31T03:37:31.372Z,88.72
2022-08-31T03:38:31.361Z,89.02
2022-08-31T03:39:31.367Z,89.12
2022-08-31T03:40:31.494Z,89.12
2022-08-31T03:41:31.332Z,89.02
2022-08-31T03:42:31.964Z,89.37
2022-08-31T03:43:31.305Z,89.47
2022-08-31T03:44:31.315Z,88.96
2022-08-31T03:45:31.280Z,89.77
2022-08-31T03:46:31.338Z,89.77
2022-08-31T03:47:31.271Z,89.61
2022-08-31T03:48:31.244Z,89.57
2022-08-31T03:49:31.453Z,90.02
2022-08-31T03:50:31.223Z,90.93
2022-08-31T03:51:31.212Z,90.53
2022-08-31T03:52:31.203Z,90.62
2022-08-31T03:53:31.248Z,90.53
2022-08-31T03:54:32.809Z,90.62
2022-08-31T03:55:31.177Z,90.53
2022-08-31T03:56:31.161Z,90.16
2022-08-31T03:57:31.148Z,90.62
2022-08-31T03:58:31.148Z,90.53
2022-08-31T03:59:36.350Z,90.42
2022-08-31T04:00:31.117Z,90.57
2022-08-31T04:01:31.195Z,91.08
2022-08-31T04:02:35.491Z,90.42
2022-08-31T04:03:35.024Z,90.57
2022-08-31T04:04:31.064Z,90.53
2022-08-31T04:05:31.057Z,90.73
2022-08-31T04:06:31.113Z,90.73
2022-08-31T04:07:31.140Z,90.73
2022-08-31T04:08:32.035Z,90.62
2022-08-31T04:09:31.029Z,90.62
2022-08-31T04:10:31.006Z,90.32
2022-08-31T04:11:45.437Z,90.32
2022-08-31T04:12:32.309Z,90.32
2022-08-31T04:13:30.992Z,90.93
2022-08-31T04:14:33.172Z,89.98
2022-08-31T04:15:31.073Z,89.77
2022-08-31T04:16:30.930Z,90.02
2022-08-31T04:17:30.927Z,89.67
2022-08-31T04:18:30.908Z,89.67
2022-08-31T04:19:31.609Z,89.67
2022-08-31T04:20:30.908Z,89.67
2022-08-31T04:21:30.885Z,89.67
2022-08-31T04:22:30.896Z,89.67
2022-08-31T04:23:30.883Z,89.26
2022-08-31T04:24:30.848Z,89.26
2022-08-31T04:25:30.832Z,89.21
2022-08-31T04:26:30.838Z,89.67
2022-08-31T04:27:30.877Z,89.61
2022-08-31T04:28:30.792Z,89.72
2022-08-31T04:29:30.816Z,89.92
2022-08-31T04:30:30.777Z,89.81
2022-08-31T04:31:30.854Z,89.81
2022-08-31T04:32:30.772Z,89.47
2022-08-31T04:33:40.282Z,89.61
2022-08-31T04:34:40.307Z,89.61
2022-08-31T04:35:30.720Z,89.92
2022-08-31T04:36:30.738Z,89.72
2022-08-31T04:37:30.698Z,89.72
2022-08-31T04:38:30.682Z,89.72
2022-08-31T04:39:32.293Z,89.41
2022-08-31T04:40:30.873Z,89.51
2022-08-31T04:41:30.675Z,89.76
2022-08-31T04:42:30.640Z,89.92
2022-08-31T04:43:30.640Z,90.26
2022-08-31T04:44:30.621Z,89.86
2022-08-31T04:45:30.667Z,89.92
2022-08-31T04:46:30.802Z,89.92
2022-08-31T04:47:30.636Z,89.92
2022-08-31T04:48:30.570Z,90.02
2022-08-31T04:49:30.573Z,89.61
2022-08-31T04:50:30.550Z,89.72
2022-08-31T04:51:30.569Z,89.61
2022-08-31T04:52:30.578Z,89.81
2022-08-31T04:53:30.548Z,89.81
2022-08-31T04:54:30.506Z,89.61
2022-08-31T04:55:30.601Z,89.76
2022-08-31T04:56:30.483Z,89.72
2022-08-31T04:57:30.842Z,89.61
2022-08-31T04:58:30.483Z,89.72
2022-08-31T04:59:30.455Z,89.81
2022-08-31T05:00:30.437Z,89.72
2022-08-31T05:01:36.059Z,89.81
2022-08-31T05:02:31.505Z,89.72
2022-08-31T05:03:30.415Z,89.61
2022-08-31T05:04:30.391Z,89.61
2022-08-31T05:05:30.397Z,89.72
2022-08-31T05:06:30.375Z,89.81
2022-08-31T05:07:30.389Z,89.61
2022-08-31T05:08:30.350Z,89.72
2022-08-31T05:09:30.349Z,89.51
2022-08-31T05:10:30.324Z,89.61
2022-08-31T05:11:30.318Z,89.61
2022-08-31T05:12:30.332Z,89.81
2022-08-31T05:13:30.292Z,89.72
2022-08-31T05:14:31.269Z,89.81
2022-08-31T05:15:30.489Z,89.51
2022-08-31T05:16:30.306Z,89.01
2022-08-31T05:17:30.248Z,89.61
2022-08-31T05:18:30.383Z,89.41
2022-08-31T05:19:30.236Z,89.01
2022-08-31T05:20:30.210Z,89.61
2022-08-31T05:21:30.203Z,89.21
2022-08-31T05:22:30.842Z,89.11
2022-08-31T05:23:30.204Z,89.11
2022-08-31T05:24:30.188Z,89.06
2022-08-31T05:25:30.156Z,89.37
2022-08-31T05:26:30.146Z,88.76
2022-08-31T05:27:30.136Z,89.06
2022-08-31T05:28:30.124Z,88.76
2022-08-31T05:29:30.165Z,88.76
2022-08-31T05:30:30.100Z,88.56
2022-08-31T05:31:30.488Z,88.25
2022-08-31T05:32:30.085Z,88.05
2022-08-31T05:33:30.088Z,88.05
2022-08-31T05:34:30.098Z,87.81
2022-08-31T05:35:30.822Z,87.71
2022-08-31T05:36:30.033Z,87.30
2022-08-31T05:37:30.049Z,87.40
2022-08-31T05:38:30.036Z,86.96
2022-08-31T05:39:30.004Z,86.76
2022-08-31T05:40:30.051Z,86.25
2022-08-31T05:41:29.982Z,86.15
2022-08-31T05:42:29.966Z,86.15
2022-08-31T05:43:29.955Z,86.15
2022-08-31T05:44:29.974Z,85.84
2022-08-31T05:45:29.937Z,86.35
2022-08-31T05:46:29.998Z,86.41
2022-08-31T05:47:29.933Z,85.64
2022-08-31T05:48:30.841Z,85.19
2022-08-31T05:49:29.891Z,84.79
2022-08-31T05:50:29.876Z,85.10
2022-08-31T05:51:29.876Z,85.10
2022-08-31T05:52:29.854Z,84.75
2022-08-31T05:53:29.863Z,84.45
2022-08-31T05:54:29.998Z,84.55
2022-08-31T05:55:29.827Z,84.55
2022-08-31T05:56:29.812Z,83.80
2022-08-31T05:57:29.880Z,83.29
2022-08-31T05:58:29.839Z,82.95
2022-08-31T05:59:29.787Z,81.84
2022-08-31T06:00:29.765Z,81.50
2022-08-31T06:01:29.785Z,81.60
2022-08-31T06:02:29.758Z,81.46
2022-08-31T06:03:29.732Z,80.15
2022-08-31T06:04:29.749Z,80.59
2022-08-31T06:05:29.766Z,80.69
2022-08-31T06:06:29.698Z,80.25
2022-08-31T06:07:29.950Z,79.91
2022-08-31T06:08:29.693Z,77.86
2022-08-31T06:09:29.687Z,77.55
2022-08-31T06:10:29.650Z,77.01
2022-08-31T06:11:29.692Z,76.47
2022-08-31T06:12:29.628Z,75.39
2022-08-31T06:13:30.031Z,74.41
2022-08-31T06:14:29.631Z,73.04
2022-08-31T06:15:29.597Z,71.23
2022-08-31T06:16:29.646Z,71.73
2022-08-31T06:17:29.580Z,71.56
2022-08-31T06:18:29.567Z,71.13
2022-08-31T06:19:29.570Z,70.26
2022-08-31T06:20:29.545Z,69.12
2022-08-31T06:21:29.529Z,68.08
2022-08-31T06:22:30.291Z,67.19
2022-08-31T06:23:29.510Z,66.86
2022-08-31T06:24:29.509Z,65.39
2022-08-31T06:25:29.484Z,65.95
2022-08-31T06:26:30.291Z,67.49
2022-08-31T06:27:29.468Z,66.59
2022-08-31T06:28:29.472Z,64.56
2022-08-31T06:29:29.467Z,62.83
2022-08-31T06:30:29.436Z,60.97
2022-08-31T06:31:29.555Z,60.08
2022-08-31T06:32:29.407Z,59.32
2022-08-31T06:33:29.412Z,57.90
2022-08-31T06:34:29.534Z,58.72
2022-08-31T06:35:29.387Z,58.53
2022-08-31T06:36:29.509Z,58.83
2022-08-31T06:37:29.353Z,58.85
2022-08-31T06:38:32.803Z,58.53
2022-08-31T06:39:30.384Z,58.59
2022-08-31T06:40:29.413Z,56.75
2022-08-31T06:41:32.175Z,57.15
2022-08-31T06:42:30.291Z,56.42
2022-08-31T06:43:29.332Z,55.53
2022-08-31T06:44:29.269Z,56.32
2022-08-31T06:45:29.507Z,55.44
2022-08-31T06:46:29.304Z,53.78
2022-08-31T06:47:29.244Z,51.65
2022-08-31T06:48:29.420Z,51.30
2022-08-31T06:49:29.228Z,49.49
2022-08-31T06:50:29.215Z,49.27
2022-08-31T06:51:29.206Z,49.74
2022-08-31T06:52:29.251Z,48.21
2022-08-31T06:53:29.199Z,46.88
2022-08-31T06:54:30.479Z,46.34
2022-08-31T06:55:29.174Z,44.82
2022-08-31T06:56:29.145Z,46.23
2022-08-31T06:57:29.128Z,47.05
2022-08-31T06:58:29.861Z,46.51
2022-08-31T06:59:29.958Z,46.26
2022-08-31T07:00:29.113Z,44.82
2022-08-31T07:01:35.636Z,43.79
2022-08-31T07:02:30.150Z,42.59
2022-08-31T07:03:29.087Z,42.69
2022-08-31T07:04:29.389Z,42.38
2022-08-31T07:05:29.076Z,41.98
2022-08-31T07:06:29.058Z,40.74
2022-08-31T07:07:29.992Z,41.41
2022-08-31T07:08:29.032Z,39.94
2022-08-31T07:09:29.016Z,39.80
2022-08-31T07:10:29.009Z,40.92
2022-08-31T07:11:28.994Z,39.82
2022-08-31T07:12:28.993Z,40.72
2022-08-31T07:13:29.403Z,40.31
2022-08-31T07:14:28.962Z,39.19
2022-08-31T07:15:29.147Z,38.67
2022-08-31T07:16:29.036Z,37.18
2022-08-31T07:17:28.935Z,38.80
2022-08-31T07:18:28.932Z,38.78
2022-08-31T07:19:28.945Z,37.85
2022-08-31T07:20:28.897Z,37.11
2022-08-31T07:21:28.982Z,37.01
2022-08-31T07:22:28.878Z,36.31
2022-08-31T07:23:28.868Z,36.04
2022-08-31T07:24:28.854Z,35.82
2022-08-31T07:25:28.844Z,35.64
2022-08-31T07:26:29.653Z,35.84
2022-08-31T07:27:28.830Z,35.04
2022-08-31T07:28:28.820Z,34.92
2022-08-31T07:29:28.801Z,35.92
2022-08-31T07:30:29.015Z,36.75
2022-08-31T07:31:28.803Z,37.57
2022-08-31T07:32:28.819Z,37.16
2022-08-31T07:33:28.767Z,37.75
2022-08-31T07:34:28.772Z,37.55
2022-08-31T07:35:28.736Z,36.21
2022-08-31T07:36:29.065Z,35.31
2022-08-31T07:37:28.739Z,36.85
2022-08-31T07:38:28.711Z,36.57
2022-08-31T07:39:28.704Z,36.18
2022-08-31T07:40:28.796Z,38.66
2022-08-31T07:41:28.701Z,39.17
2022-08-31T07:42:28.673Z,38.21
2022-08-31T07:43:28.715Z,37.03
2022-08-31T07:44:28.645Z,37.19
2022-08-31T07:45:29.229Z,37.27
2022-08-31T07:46:28.718Z,36.98
2022-08-31T07:47:29.386Z,37.42
2022-08-31T07:48:28.601Z,38.74
2022-08-31T07:49:28.591Z,37.90
2022-08-31T07:50:28.574Z,36.24
2022-08-31T07:51:28.633Z,33.61
2022-08-31T07:52:28.559Z,33.09
2022-08-31T07:53:28.565Z,33.34
2022-08-31T07:54:28.546Z,34.24
2022-08-31T07:55:28.553Z,33.34
2022-08-31T07:56:30.855Z,33.01
2022-08-31T07:57:28.533Z,35.04
2022-08-31T07:58:28.498Z,34.96
2022-08-31T07:59:28.492Z,35.29
2022-08-31T08:00:28.507Z,36.30
2022-08-31T08:01:28.491Z,35.82
2022-08-31T08:02:28.808Z,36.74
2022-08-31T08:03:28.450Z,37.07
2022-08-31T08:04:28.439Z,36.63
2022-08-31T08:05:29.047Z,36.21
2022-08-31T08:06:28.571Z,34.80
2022-08-31T08:07:28.407Z,34.90
2022-08-31T08:08:28.391Z,35.91
2022-08-31T08:09:28.412Z,34.98
2022-08-31T08:10:28.433Z,34.03
2022-08-31T08:11:28.363Z,32.34
2022-08-31T08:12:28.350Z,34.26
2022-08-31T08:13:32.502Z,33.39
2022-08-31T08:14:30.207Z,35.37
2022-08-31T08:15:28.393Z,33.67
2022-08-31T08:16:28.368Z,36.40
2022-08-31T08:17:28.417Z,35.37
2022-08-31T08:18:28.289Z,35.82
2022-08-31T08:19:28.469Z,35.16
2022-08-31T08:20:34.646Z,32.99
2022-08-31T08:21:29.903Z,31.27
2022-08-31T08:22:50.926Z,30.51
2022-08-31T08:23:29.356Z,32.75
2022-08-31T08:24:28.225Z,32.73
2022-08-31T08:25:28.902Z,31.30
2022-08-31T08:26:28.231Z,32.78
2022-08-31T08:27:28.226Z,35.17
2022-08-31T08:28:39.205Z,33.53
2022-08-31T08:29:29.903Z,33.25
2022-08-31T08:30:28.166Z,32.89
2022-08-31T08:31:28.222Z,31.49
2022-08-31T08:32:28.145Z,30.88
2022-08-31T08:33:28.135Z,30.49
2022-08-31T08:34:32.187Z,31.22
2022-08-31T08:35:28.113Z,30.34
2022-08-31T08:36:28.336Z,32.09
2022-08-31T08:37:54.197Z,33.59
2022-08-31T08:38:29.106Z,33.09
2022-08-31T08:39:28.088Z,34.21
2022-08-31T08:40:28.211Z,36.22
2022-08-31T08:41:28.033Z,33.87
2022-08-31T08:42:28.024Z,32.95
2022-08-31T08:43:30.902Z,31.31
2022-08-31T08:44:28.018Z,31.45
2022-08-31T08:45:28.071Z,33.17
2022-08-31T08:47:38.468Z,33.89
2022-08-31T08:47:38.610Z,34.30
2022-08-31T08:48:28.965Z,34.16
2022-08-31T08:49:27.976Z,33.53
2022-08-31T08:50:27.953Z,34.08
2022-08-31T08:51:27.931Z,34.98
2022-08-31T08:52:27.924Z,34.05
2022-08-31T08:53:28.895Z,32.70
2022-08-31T08:54:27.907Z,30.80
2022-08-31T08:55:29.111Z,30.28
2022-08-31T08:56:33.690Z,29.74
2022-08-31T08:57:28.924Z,29.52
2022-08-31T08:58:27.861Z,28.34
2022-08-31T08:59:27.858Z,28.51
2022-08-31T09:00:27.871Z,27.33
2022-08-31T09:01:27.874Z,26.72
2022-08-31T09:02:27.855Z,26.67
2022-08-31T09:03:27.814Z,26.30
2022-08-31T09:04:27.804Z,28.75
2022-08-31T09:05:36.638Z,28.23
2022-08-31T09:06:31.693Z,30.57
2022-08-31T09:07:28.770Z,30.83
2022-08-31T09:08:27.822Z,29.51
2022-08-31T09:09:27.749Z,29.14
2022-08-31T09:10:27.769Z,29.91
2022-08-31T09:11:27.737Z,28.79
2022-08-31T09:12:27.755Z,28.49
2022-08-31T09:13:27.713Z,28.76
2022-08-31T09:14:27.960Z,30.81
2022-08-31T09:15:27.715Z,32.99
2022-08-31T09:16:27.786Z,34.05
2022-08-31T09:17:27.679Z,34.80
2022-08-31T09:18:27.679Z,36.85
2022-08-31T09:19:27.653Z,35.82
2022-08-31T09:20:29.579Z,35.87
2022-08-31T09:21:27.640Z,37.48
2022-08-31T09:22:27.627Z,37.26
2022-08-31T09:23:27.737Z,39.32
2022-08-31T09:24:27.630Z,41.28
2022-08-31T09:25:29.701Z,41.20
2022-08-31T09:26:27.647Z,37.69
2022-08-31T09:27:27.631Z,38.73
2022-08-31T09:28:27.570Z,40.19
2022-08-31T09:29:27.627Z,40.17
2022-08-31T09:30:27.634Z,41.04
2022-08-31T09:31:27.576Z,40.64
2022-08-31T09:32:27.528Z,39.94
2022-08-31T09:33:27.512Z,37.65
2022-08-31T09:34:27.500Z,36.90
2022-08-31T09:35:27.516Z,35.75
2022-08-31T09:36:27.502Z,36.93
2022-08-31T09:37:27.474Z,35.62
2022-08-31T09:38:27.458Z,33.59
2022-08-31T09:39:28.619Z,34.92
2022-08-31T09:40:27.600Z,36.11
2022-08-31T09:41:27.429Z,35.27
2022-08-31T09:42:27.419Z,35.11
2022-08-31T09:43:27.425Z,36.29
2022-08-31T09:44:27.400Z,36.30
2022-08-31T09:45:27.399Z,35.91
2022-08-31T09:46:28.391Z,35.70
2022-08-31T09:47:27.364Z,35.49
2022-08-31T09:48:27.377Z,35.66
2022-08-31T09:49:27.364Z,37.87
2022-08-31T09:50:27.342Z,37.21
2022-08-31T09:51:27.329Z,34.88
2022-08-31T09:52:27.316Z,35.64
2022-08-31T09:53:27.345Z,37.71
2022-08-31T09:54:27.301Z,40.61
2022-08-31T09:55:27.311Z,38.03
2022-08-31T09:56:27.271Z,36.95
2022-08-31T09:57:27.446Z,36.87
2022-08-31T09:58:27.275Z,37.36
2022-08-31T09:59:27.269Z,38.99
2022-08-31T10:00:27.272Z,39.20
2022-08-31T10:01:27.313Z,40.76
2022-08-31T10:02:27.213Z,41.04
2022-08-31T10:03:27.461Z,39.18
2022-08-31T10:04:27.211Z,37.76
2022-08-31T10:05:27.211Z,37.57
2022-08-31T10:06:27.206Z,37.99
2022-08-31T10:07:27.158Z,37.92
2022-08-31T10:08:27.384Z,35.29
2022-08-31T10:09:27.137Z,35.11
2022-08-31T10:10:31.204Z,35.03
2022-08-31T10:11:27.114Z,33.98
2022-08-31T10:12:27.104Z,33.89
2022-08-31T10:13:27.094Z,33.28
2022-08-31T10:14:27.931Z,32.94
2022-08-31T10:15:27.069Z,31.35
2022-08-31T10:16:27.172Z,31.54
2022-08-31T10:17:32.120Z,33.61
2022-08-31T10:18:28.067Z,36.22
2022-08-31T10:19:27.063Z,37.91
2022-08-31T10:20:30.429Z,38.54
2022-08-31T10:21:27.011Z,39.46
2022-08-31T10:22:27.046Z,40.07
2022-08-31T10:23:27.002Z,41.31
2022-08-31T10:24:27.005Z,41.65
2022-08-31T10:25:26.976Z,40.84
2022-08-31T10:26:26.956Z,41.93
2022-08-31T10:27:26.947Z,41.33
2022-08-31T10:28:26.968Z,42.05
2022-08-31T10:29:26.944Z,42.57
2022-08-31T10:30:26.932Z,41.97
2022-08-31T10:31:26.990Z,42.27
2022-08-31T10:32:26.898Z,41.10
2022-08-31T10:33:26.977Z,38.01
2022-08-31T10:34:26.876Z,37.71
2022-08-31T10:35:26.882Z,38.96
2022-08-31T10:36:26.863Z,39.62
2022-08-31T10:37:26.845Z,42.19
2022-08-31T10:38:26.836Z,41.41
2022-08-31T10:39:29.576Z,38.43
2022-08-31T10:40:26.838Z,36.47
2022-08-31T10:41:26.796Z,35.33
2022-08-31T10:42:26.789Z,34.51
2022-08-31T10:43:26.781Z,34.54
2022-08-31T10:44:26.801Z,36.57
2022-08-31T10:45:26.788Z,36.51
2022-08-31T10:46:26.819Z,36.82
2022-08-31T10:47:33.901Z,38.71
2022-08-31T10:48:27.752Z,40.19
2022-08-31T10:49:26.716Z,41.61
2022-08-31T10:50:26.704Z,41.93
2022-08-31T10:51:26.688Z,43.26
2022-08-31T10:52:26.826Z,42.82
2022-08-31T10:53:26.671Z,43.28
2022-08-31T10:54:26.685Z,45.33
2022-08-31T10:55:26.651Z,45.26
2022-08-31T10:56:26.656Z,46.45
2022-08-31T10:57:31.438Z,46.23
2022-08-31T10:58:27.620Z,45.34
2022-08-31T10:59:26.635Z,41.10
2022-08-31T11:00:26.599Z,37.43
2022-08-31T11:01:26.673Z,37.34
2022-08-31T11:02:26.575Z,36.59
2022-08-31T11:03:26.625Z,37.14
2022-08-31T11:04:27.380Z,36.72
2022-08-31T11:05:26.608Z,38.20
2022-08-31T11:06:26.539Z,39.72
2022-08-31T11:07:26.526Z,41.25
2022-08-31T11:08:26.535Z,41.60
2022-08-31T11:09:26.505Z,43.22
2022-08-31T11:10:26.513Z,42.66
2022-08-31T11:11:26.716Z,43.66
2022-08-31T11:12:26.478Z,43.96
2022-08-31T11:13:26.477Z,44.33
2022-08-31T11:14:26.449Z,43.02
2022-08-31T11:15:28.296Z,42.82
2022-08-31T11:16:26.469Z,42.94
2022-08-31T11:17:26.437Z,44.51
2022-08-31T11:18:26.405Z,44.59
2022-08-31T11:19:26.394Z,45.19
2022-08-31T11:20:26.386Z,45.09
2022-08-31T11:21:26.369Z,43.74
2022-08-31T11:22:26.380Z,42.60
2022-08-31T11:23:26.366Z,41.61
2022-08-31T11:24:26.357Z,42.63
2022-08-31T11:25:26.327Z,42.43
2022-08-31T11:26:26.318Z,41.87
2022-08-31T11:27:27.632Z,44.42
2022-08-31T11:28:26.481Z,42.96
2022-08-31T11:29:26.282Z,43.10
2022-08-31T11:30:26.292Z,44.71
2022-08-31T11:31:26.288Z,44.36
2022-08-31T11:32:27.710Z,45.95
2022-08-31T11:33:26.242Z,46.77
2022-08-31T11:34:26.573Z,46.87
2022-08-31T11:35:26.218Z,46.05
2022-08-31T11:36:26.207Z,46.25
2022-08-31T11:37:26.214Z,46.97
2022-08-31T11:38:26.207Z,46.17
2022-08-31T11:39:26.181Z,46.55
2022-08-31T11:40:26.214Z,46.15
2022-08-31T11:41:26.178Z,46.83
2022-08-31T11:42:26.143Z,44.35
2022-08-31T11:43:26.136Z,42.36
2022-08-31T11:44:26.126Z,41.14
2022-08-31T11:45:27.120Z,40.78
2022-08-31T11:46:26.483Z,41.12
2022-08-31T11:47:26.092Z,40.37
2022-08-31T11:48:26.095Z,38.02
2022-08-31T11:49:26.131Z,37.12
2022-08-31T11:50:26.057Z,37.14
2022-08-31T11:51:26.930Z,38.37
2022-08-31T11:52:26.059Z,38.69
2022-08-31T11:53:26.037Z,38.16
2022-08-31T11:54:26.020Z,37.76
2022-08-31T11:55:26.018Z,39.28
2022-08-31T11:56:25.995Z,40.01
2022-08-31T11:57:26.008Z,41.69
2022-08-31T11:58:26.066Z,42.38
2022-08-31T11:59:25.969Z,42.09
2022-08-31T12:00:25.991Z,41.97
2022-08-31T12:01:25.951Z,42.36
2022-08-31T12:02:26.176Z,41.75
2022-08-31T12:03:25.928Z,41.10
2022-08-31T12:04:25.912Z,41.69
2022-08-31T12:05:25.948Z,41.91
2022-08-31T12:06:25.903Z,42.21
2022-08-31T12:07:25.906Z,42.92
2022-08-31T12:08:26.061Z,44.37
2022-08-31T12:09:25.870Z,44.79
2022-08-31T12:10:27.486Z,45.57
2022-08-31T12:11:25.857Z,46.57
2022-08-31T12:12:25.827Z,47.05
2022-08-31T12:13:25.842Z,46.05
2022-08-31T12:14:25.806Z,46.90
2022-08-31T12:15:25.810Z,45.31
2022-08-31T12:16:25.827Z,45.51
2022-08-31T12:17:25.793Z,46.03
2022-08-31T12:18:25.761Z,46.65
2022-08-31T12:19:25.846Z,47.27
2022-08-31T12:20:25.755Z,46.87
2022-08-31T12:21:25.750Z,47.07
2022-08-31T12:22:25.722Z,46.39
2022-08-31T12:23:30.988Z,46.45
2022-08-31T12:24:26.696Z,45.19
2022-08-31T12:25:28.989Z,43.98
2022-08-31T12:26:25.681Z,44.06
2022-08-31T12:27:25.665Z,42.33
2022-08-31T12:28:27.447Z,42.49
2022-08-31T12:29:25.647Z,41.47
2022-08-31T12:30:25.660Z,41.89
2022-08-31T12:31:25.703Z,43.22
2022-08-31T12:32:25.613Z,42.57
2022-08-31T12:33:25.603Z,43.40
2022-08-31T12:34:25.590Z,43.60
2022-08-31T12:35:25.580Z,44.00
2022-08-31T12:36:26.490Z,44.12
2022-08-31T12:37:25.557Z,44.74
2022-08-31T12:38:25.551Z,44.64
2022-08-31T12:39:25.541Z,44.56
2022-08-31T12:40:25.618Z,44.85
2022-08-31T12:41:25.620Z,44.48
2022-08-31T12:42:25.859Z,45.30
2022-08-31T12:43:25.496Z,45.42
2022-08-31T12:44:25.499Z,45.50
2022-08-31T12:45:25.477Z,45.57
2022-08-31T12:46:25.539Z,45.65
2022-08-31T12:47:25.471Z,44.36
2022-08-31T12:48:25.444Z,43.96
2022-08-31T12:49:25.443Z,43.94
2022-08-31T12:50:25.418Z,43.13
2022-08-31T12:51:25.430Z,42.71
2022-08-31T12:52:25.398Z,42.17